Portada
METAR-TAF:

METAR-TAF

Aeroports :

Zhengzhou, Xina

latitud: 34-43N, longitud: 113-39E, altitud: 111 m

Observació

L'informe es va fer fa 25 minuts, a les 18:00 UTC
Vent 2 kt amb direcció variable
Temperatura 12°C
Humitat 67%
Pressió 1017 hPa
Visibilitat: 4000 m
calitja

METAR: ZHCC 221800Z VRB01MPS 4000 HZ NSC 12/06 Q1017 NOSIG

Hora: 02:25 (18:25 UTC)

Pronòstic

L'informe es va fer fa 3 hores i 21 minuts, a les 15:04 UTC
Pronòstic vàlid del 22 a les 18 UTC al 23 a les 18 UTC
Vent 6 kt del Sud
Visibilitat: 3000 m
boirina
Temporalment
l' 22 a les 20 UTC al 23 a les 02 UTC
Visibilitat: 1200 m

TAF: ZHCC 221504Z 2218/2318 18003MPS 3000 BR NSC TX17/2307Z TN05/2222Z TEMPO 2220/2302 1200

Observacions i pronòstics meteorològics de més de 4000 aeroports (METAR i TAF).

Les estacions disponibles són els punts grocs i vermells al mapa.

Posi el ratolí al punt desitjat per veure el nom de l'estació.

Feu clic per veure les observacions i els pronòstics meteorològics.

Per canviar el mapa: feu clic els botons verds amb una creu de color negre per apropar; al botó verd amb un guió per allunyar la imatge; o en les fletxes verdes per a mapes adjacents.


METAR-TAF: